sensor_id;sensor_type;location;lat;lon;timestamp;temperature;humidity
2012;DHT22;1009;51.436;6.972;2023-08-06T00:00:39;16.60;99.90
2012;DHT22;1009;51.436;6.972;2023-08-06T00:03:06;16.60;99.90
2012;DHT22;1009;51.436;6.972;2023-08-06T00:05:33;16.60;99.90
2012;DHT22;1009;51.436;6.972;2023-08-06T00:08:00;16.60;99.90
2012;DHT22;1009;51.436;6.972;2023-08-06T00:10:29;16.50;99.90
2012;DHT22;1009;51.436;6.972;2023-08-06T00:12:56;16.50;99.90
2012;DHT22;1009;51.436;6.972;2023-08-06T00:15:22;16.50;99.90
2012;DHT22;1009;51.436;6.972;2023-08-06T00:17:49;16.60;99.90
2012;DHT22;1009;51.436;6.972;2023-08-06T00:20:16;16.50;99.90
2012;DHT22;1009;51.436;6.972;2023-08-06T00:22:43;16.50;99.90
2012;DHT22;1009;51.436;6.972;2023-08-06T00:25:10;16.60;99.90
2012;DHT22;1009;51.436;6.972;2023-08-06T00:27:38;16.60;99.90
2012;DHT22;1009;51.436;6.972;2023-08-06T00:30:06;16.60;99.90
2012;DHT22;1009;51.436;6.972;2023-08-06T00:32:33;16.60;99.90
2012;DHT22;1009;51.436;6.972;2023-08-06T00:34:59;16.60;99.90
2012;DHT22;1009;51.436;6.972;2023-08-06T00:37:26;16.60;99.90
2012;DHT22;1009;51.436;6.972;2023-08-06T00:39:53;16.50;99.90
2012;DHT22;1009;51.436;6.972;2023-08-06T00:42:20;16.50;99.90
2012;DHT22;1009;51.436;6.972;2023-08-06T00:44:49;16.50;99.90
2012;DHT22;1009;51.436;6.972;2023-08-06T00:47:16;16.50;99.90
2012;DHT22;1009;51.436;6.972;2023-08-06T00:49:43;16.50;99.90
2012;DHT22;1009;51.436;6.972;2023-08-06T00:52:10;16.50;99.90
2012;DHT22;1009;51.436;6.972;2023-08-06T00:54:40;16.50;99.90
2012;DHT22;1009;51.436;6.972;2023-08-06T00:57:07;16.50;99.90
2012;DHT22;1009;51.436;6.972;2023-08-06T00:59:35;16.50;99.90
2012;DHT22;1009;51.436;6.972;2023-08-06T01:02:04;16.50;99.90
2012;DHT22;1009;51.436;6.972;2023-08-06T01:04:31;16.50;99.90
2012;DHT22;1009;51.436;6.972;2023-08-06T01:07:05;16.50;99.90
2012;DHT22;1009;51.436;6.972;2023-08-06T01:09:42;16.50;99.90
2012;DHT22;1009;51.436;6.972;2023-08-06T01:12:20;16.40;99.90
2012;DHT22;1009;51.436;6.972;2023-08-06T01:14:53;16.40;99.90
2012;DHT22;1009;51.436;6.972;2023-08-06T01:17:25;16.40;99.90
2012;DHT22;1009;51.436;6.972;2023-08-06T01:19:53;16.40;99.90
2012;DHT22;1009;51.436;6.972;2023-08-06T01:22:21;16.30;99.90
2012;DHT22;1009;51.436;6.972;2023-08-06T01:24:49;16.30;99.90
2012;DHT22;1009;51.436;6.972;2023-08-06T01:27:23;16.30;99.90
2012;DHT22;1009;51.436;6.972;2023-08-06T01:29:58;16.20;99.90
2012;DHT22;1009;51.436;6.972;2023-08-06T01:32:29;16.20;99.90
2012;DHT22;1009;51.436;6.972;2023-08-06T01:35:00;16.20;99.90
2012;DHT22;1009;51.436;6.972;2023-08-06T01:37:28;16.20;99.90
2012;DHT22;1009;51.436;6.972;2023-08-06T01:39:55;16.20;99.90
2012;DHT22;1009;51.436;6.972;2023-08-06T01:42:22;16.10;99.90
2012;DHT22;1009;51.436;6.972;2023-08-06T01:44:49;16.10;99.90
2012;DHT22;1009;51.436;6.972;2023-08-06T01:47:16;16.20;99.90
2012;DHT22;1009;51.436;6.972;2023-08-06T01:49:43;16.20;99.90
2012;DHT22;1009;51.436;6.972;2023-08-06T01:52:10;16.20;99.90
2012;DHT22;1009;51.436;6.972;2023-08-06T01:54:38;16.20;99.90
2012;DHT22;1009;51.436;6.972;2023-08-06T01:57:05;16.20;99.90
2012;DHT22;1009;51.436;6.972;2023-08-06T01:59:32;16.20;99.90
2012;DHT22;1009;51.436;6.972;2023-08-06T02:01:59;16.30;99.90
2012;DHT22;1009;51.436;6.972;2023-08-06T02:04:25;16.30;99.90
2012;DHT22;1009;51.436;6.972;2023-08-06T02:06:52;16.30;99.90
2012;DHT22;1009;51.436;6.972;2023-08-06T02:09:19;16.40;99.90
2012;DHT22;1009;51.436;6.972;2023-08-06T02:11:47;16.40;99.90
2012;DHT22;1009;51.436;6.972;2023-08-06T02:14:14;16.40;99.90
2012;DHT22;1009;51.436;6.972;2023-08-06T02:16:40;16.40;99.90
2012;DHT22;1009;51.436;6.972;2023-08-06T02:19:07;16.30;99.90
2012;DHT22;1009;51.436;6.972;2023-08-06T02:21:34;16.20;99.90
2012;DHT22;1009;51.436;6.972;2023-08-06T02:24:01;16.20;99.90
2012;DHT22;1009;51.436;6.972;2023-08-06T02:26:27;16.20;99.90
2012;DHT22;1009;51.436;6.972;2023-08-06T02:28:55;16.20;99.90
2012;DHT22;1009;51.436;6.972;2023-08-06T02:31:22;16.10;99.90
2012;DHT22;1009;51.436;6.972;2023-08-06T02:33:49;16.10;99.90
2012;DHT22;1009;51.436;6.972;2023-08-06T02:36:16;16.10;99.90
2012;DHT22;1009;51.436;6.972;2023-08-06T02:38:42;16.10;99.90
2012;DHT22;1009;51.436;6.972;2023-08-06T02:41:10;16.10;99.90
2012;DHT22;1009;51.436;6.972;2023-08-06T02:43:37;16.20;99.90
2012;DHT22;1009;51.436;6.972;2023-08-06T02:46:05;16.20;99.90
2012;DHT22;1009;51.436;6.972;2023-08-06T02:48:31;16.20;99.90
2012;DHT22;1009;51.436;6.972;2023-08-06T02:50:59;16.20;99.90
2012;DHT22;1009;51.436;6.972;2023-08-06T02:53:26;16.10;99.90
2012;DHT22;1009;51.436;6.972;2023-08-06T02:55:53;16.10;99.90
2012;DHT22;1009;51.436;6.972;2023-08-06T02:58:20;16.00;99.90
2012;DHT22;1009;51.436;6.972;2023-08-06T03:00:59;15.90;99.90
2012;DHT22;1009;51.436;6.972;2023-08-06T03:03:28;15.90;99.90
2012;DHT22;1009;51.436;6.972;2023-08-06T03:05:55;15.90;99.90
2012;DHT22;1009;51.436;6.972;2023-08-06T03:08:22;15.90;99.90
2012;DHT22;1009;51.436;6.972;2023-08-06T03:10:49;15.80;99.90
2012;DHT22;1009;51.436;6.972;2023-08-06T03:13:16;15.80;99.90
2012;DHT22;1009;51.436;6.972;2023-08-06T03:15:42;15.80;99.90
2012;DHT22;1009;51.436;6.972;2023-08-06T03:18:09;15.80;99.90
2012;DHT22;1009;51.436;6.972;2023-08-06T03:20:37;15.80;99.90
2012;DHT22;1009;51.436;6.972;2023-08-06T03:23:04;15.90;99.90
2012;DHT22;1009;51.436;6.972;2023-08-06T03:25:31;15.90;99.90
2012;DHT22;1009;51.436;6.972;2023-08-06T03:27:57;15.90;99.90
2012;DHT22;1009;51.436;6.972;2023-08-06T03:30:24;15.90;99.90
2012;DHT22;1009;51.436;6.972;2023-08-06T03:32:51;16.00;99.90
2012;DHT22;1009;51.436;6.972;2023-08-06T03:35:18;16.00;99.90
2012;DHT22;1009;51.436;6.972;2023-08-06T03:37:46;16.10;99.90
2012;DHT22;1009;51.436;6.972;2023-08-06T03:40:14;16.10;99.90
2012;DHT22;1009;51.436;6.972;2023-08-06T03:42:40;16.10;99.90
2012;DHT22;1009;51.436;6.972;2023-08-06T03:45:08;16.20;99.90
2012;DHT22;1009;51.436;6.972;2023-08-06T03:47:35;16.20;99.90
2012;DHT22;1009;51.436;6.972;2023-08-06T03:50:02;16.30;99.90
2012;DHT22;1009;51.436;6.972;2023-08-06T03:52:29;16.20;99.90
2012;DHT22;1009;51.436;6.972;2023-08-06T03:54:57;16.20;99.90
2012;DHT22;1009;51.436;6.972;2023-08-06T03:57:23;16.20;99.90
2012;DHT22;1009;51.436;6.972;2023-08-06T03:59:50;16.10;99.90
2012;DHT22;1009;51.436;6.972;2023-08-06T04:02:17;16.10;99.90
2012;DHT22;1009;51.436;6.972;2023-08-06T04:04:44;16.10;99.90
2012;DHT22;1009;51.436;6.972;2023-08-06T04:07:10;16.10;99.90
2012;DHT22;1009;51.436;6.972;2023-08-06T04:09:53;16.10;99.90
2012;DHT22;1009;51.436;6.972;2023-08-06T04:12:21;16.10;99.90
2012;DHT22;1009;51.436;6.972;2023-08-06T04:14:49;16.20;99.90
2012;DHT22;1009;51.436;6.972;2023-08-06T04:17:16;16.10;99.90
2012;DHT22;1009;51.436;6.972;2023-08-06T04:19:46;16.20;99.90
2012;DHT22;1009;51.436;6.972;2023-08-06T04:22:12;16.20;99.90
2012;DHT22;1009;51.436;6.972;2023-08-06T04:24:39;16.30;99.90
2012;DHT22;1009;51.436;6.972;2023-08-06T04:27:09;16.30;99.90
2012;DHT22;1009;51.436;6.972;2023-08-06T04:29:38;16.30;99.90
2012;DHT22;1009;51.436;6.972;2023-08-06T04:32:06;16.30;99.90
2012;DHT22;1009;51.436;6.972;2023-08-06T04:34:34;16.30;99.90
2012;DHT22;1009;51.436;6.972;2023-08-06T04:37:02;16.30;99.90
2012;DHT22;1009;51.436;6.972;2023-08-06T04:39:29;16.30;99.90
2012;DHT22;1009;51.436;6.972;2023-08-06T04:41:56;16.30;99.90
2012;DHT22;1009;51.436;6.972;2023-08-06T04:44:23;16.30;99.90
2012;DHT22;1009;51.436;6.972;2023-08-06T04:46:52;16.30;99.90
2012;DHT22;1009;51.436;6.972;2023-08-06T04:49:19;16.30;99.90
2012;DHT22;1009;51.436;6.972;2023-08-06T04:51:46;16.30;99.90
2012;DHT22;1009;51.436;6.972;2023-08-06T04:54:13;16.40;99.90
2012;DHT22;1009;51.436;6.972;2023-08-06T04:56:40;16.40;99.90
2012;DHT22;1009;51.436;6.972;2023-08-06T04:59:07;16.40;99.90
2012;DHT22;1009;51.436;6.972;2023-08-06T05:01:33;16.50;99.90
2012;DHT22;1009;51.436;6.972;2023-08-06T05:04:02;16.50;99.90
2012;DHT22;1009;51.436;6.972;2023-08-06T05:06:28;16.50;99.90
2012;DHT22;1009;51.436;6.972;2023-08-06T05:08:55;16.60;99.90
2012;DHT22;1009;51.436;6.972;2023-08-06T05:11:22;16.60;99.90
2012;DHT22;1009;51.436;6.972;2023-08-06T05:13:49;16.70;99.90
2012;DHT22;1009;51.436;6.972;2023-08-06T05:16:16;16.70;99.90
2012;DHT22;1009;51.436;6.972;2023-08-06T05:18:43;16.80;99.90
2012;DHT22;1009;51.436;6.972;2023-08-06T05:21:11;16.80;99.90
2012;DHT22;1009;51.436;6.972;2023-08-06T05:23:38;16.80;99.90
2012;DHT22;1009;51.436;6.972;2023-08-06T05:26:05;16.80;99.90
2012;DHT22;1009;51.436;6.972;2023-08-06T05:28:31;16.90;99.90
2012;DHT22;1009;51.436;6.972;2023-08-06T05:30:58;17.00;99.90
2012;DHT22;1009;51.436;6.972;2023-08-06T05:33:25;17.00;99.90
2012;DHT22;1009;51.436;6.972;2023-08-06T05:35:52;16.90;99.90
2012;DHT22;1009;51.436;6.972;2023-08-06T05:38:20;17.00;99.90
2012;DHT22;1009;51.436;6.972;2023-08-06T05:40:46;17.00;99.90
2012;DHT22;1009;51.436;6.972;2023-08-06T05:43:14;16.90;99.90
2012;DHT22;1009;51.436;6.972;2023-08-06T05:45:44;16.90;99.90
2012;DHT22;1009;51.436;6.972;2023-08-06T05:48:11;16.90;99.90
2012;DHT22;1009;51.436;6.972;2023-08-06T05:50:38;16.90;99.90
2012;DHT22;1009;51.436;6.972;2023-08-06T05:53:05;17.00;99.90
2012;DHT22;1009;51.436;6.972;2023-08-06T05:55:33;17.00;99.90
2012;DHT22;1009;51.436;6.972;2023-08-06T05:58:01;17.10;99.90
2012;DHT22;1009;51.436;6.972;2023-08-06T06:00:28;17.10;99.90
2012;DHT22;1009;51.436;6.972;2023-08-06T06:02:54;17.10;99.90
2012;DHT22;1009;51.436;6.972;2023-08-06T06:05:21;17.10;99.90
2012;DHT22;1009;51.436;6.972;2023-08-06T06:07:48;17.10;99.90
2012;DHT22;1009;51.436;6.972;2023-08-06T06:10:15;17.10;99.90
2012;DHT22;1009;51.436;6.972;2023-08-06T06:12:43;17.00;99.90
2012;DHT22;1009;51.436;6.972;2023-08-06T06:15:10;17.10;99.90
2012;DHT22;1009;51.436;6.972;2023-08-06T06:17:37;17.00;99.90
2012;DHT22;1009;51.436;6.972;2023-08-06T06:20:05;17.00;99.90
2012;DHT22;1009;51.436;6.972;2023-08-06T06:22:32;17.10;99.90
2012;DHT22;1009;51.436;6.972;2023-08-06T06:24:58;17.20;99.90
2012;DHT22;1009;51.436;6.972;2023-08-06T06:27:25;17.20;99.90
2012;DHT22;1009;51.436;6.972;2023-08-06T06:29:53;17.20;99.90
2012;DHT22;1009;51.436;6.972;2023-08-06T06:32:21;17.20;99.90
2012;DHT22;1009;51.436;6.972;2023-08-06T06:34:48;17.30;99.90
2012;DHT22;1009;51.436;6.972;2023-08-06T06:37:14;17.40;99.90
2012;DHT22;1009;51.436;6.972;2023-08-06T06:39:41;17.40;99.90
2012;DHT22;1009;51.436;6.972;2023-08-06T06:42:09;17.30;99.90
2012;DHT22;1009;51.436;6.972;2023-08-06T06:44:36;17.20;99.90
2012;DHT22;1009;51.436;6.972;2023-08-06T06:47:04;17.20;99.90
2012;DHT22;1009;51.436;6.972;2023-08-06T06:49:31;17.30;99.90
2012;DHT22;1009;51.436;6.972;2023-08-06T06:51:58;17.40;99.90
2012;DHT22;1009;51.436;6.972;2023-08-06T06:54:24;17.40;99.90
2012;DHT22;1009;51.436;6.972;2023-08-06T06:56:51;17.30;99.90
2012;DHT22;1009;51.436;6.972;2023-08-06T06:59:18;17.30;99.90
2012;DHT22;1009;51.436;6.972;2023-08-06T07:01:45;17.30;99.90
2012;DHT22;1009;51.436;6.972;2023-08-06T07:04:13;17.40;99.90
2012;DHT22;1009;51.436;6.972;2023-08-06T07:06:40;17.40;99.90
2012;DHT22;1009;51.436;6.972;2023-08-06T07:09:07;17.50;99.90
2012;DHT22;1009;51.436;6.972;2023-08-06T07:11:34;17.50;99.90
2012;DHT22;1009;51.436;6.972;2023-08-06T07:14:01;17.50;99.90
2012;DHT22;1009;51.436;6.972;2023-08-06T07:16:28;17.50;99.90
2012;DHT22;1009;51.436;6.972;2023-08-06T07:18:54;17.60;99.90
2012;DHT22;1009;51.436;6.972;2023-08-06T07:21:23;17.70;99.90
2012;DHT22;1009;51.436;6.972;2023-08-06T07:23:49;17.80;99.90
2012;DHT22;1009;51.436;6.972;2023-08-06T07:26:16;17.80;99.90
2012;DHT22;1009;51.436;6.972;2023-08-06T07:28:43;17.80;99.90
2012;DHT22;1009;51.436;6.972;2023-08-06T07:31:10;17.80;99.90
2012;DHT22;1009;51.436;6.972;2023-08-06T07:33:37;17.70;99.90
2012;DHT22;1009;51.436;6.972;2023-08-06T07:36:12;17.80;99.90
2012;DHT22;1009;51.436;6.972;2023-08-06T07:38:40;17.90;99.90
2012;DHT22;1009;51.436;6.972;2023-08-06T07:41:07;17.90;99.90
2012;DHT22;1009;51.436;6.972;2023-08-06T07:43:34;18.00;99.90
2012;DHT22;1009;51.436;6.972;2023-08-06T07:46:02;17.90;99.90
2012;DHT22;1009;51.436;6.972;2023-08-06T07:48:29;18.00;99.90
2012;DHT22;1009;51.436;6.972;2023-08-06T07:50:56;18.10;99.90
2012;DHT22;1009;51.436;6.972;2023-08-06T07:53:23;18.20;99.90
2012;DHT22;1009;51.436;6.972;2023-08-06T07:55:54;18.20;99.90
2012;DHT22;1009;51.436;6.972;2023-08-06T07:58:21;18.20;99.90
2012;DHT22;1009;51.436;6.972;2023-08-06T08:00:48;18.30;99.90
2012;DHT22;1009;51.436;6.972;2023-08-06T08:03:15;18.30;99.90
2012;DHT22;1009;51.436;6.972;2023-08-06T08:05:43;18.40;99.90
2012;DHT22;1009;51.436;6.972;2023-08-06T08:08:10;18.50;99.90
2012;DHT22;1009;51.436;6.972;2023-08-06T08:10:37;18.50;99.90
2012;DHT22;1009;51.436;6.972;2023-08-06T08:13:06;18.60;99.90
2012;DHT22;1009;51.436;6.972;2023-08-06T08:15:34;18.50;99.90
2012;DHT22;1009;51.436;6.972;2023-08-06T08:18:02;18.40;99.90
2012;DHT22;1009;51.436;6.972;2023-08-06T08:20:28;18.30;99.90
2012;DHT22;1009;51.436;6.972;2023-08-06T08:22:58;18.30;99.90
2012;DHT22;1009;51.436;6.972;2023-08-06T08:25:25;18.30;99.90
2012;DHT22;1009;51.436;6.972;2023-08-06T08:27:52;18.30;99.90
2012;DHT22;1009;51.436;6.972;2023-08-06T08:30:20;18.40;99.90
2012;DHT22;1009;51.436;6.972;2023-08-06T08:32:48;18.40;99.90
2012;DHT22;1009;51.436;6.972;2023-08-06T08:35:15;18.50;99.90
2012;DHT22;1009;51.436;6.972;2023-08-06T08:37:42;18.60;99.90
2012;DHT22;1009;51.436;6.972;2023-08-06T08:40:09;18.60;99.90
2012;DHT22;1009;51.436;6.972;2023-08-06T08:42:36;18.70;99.90
2012;DHT22;1009;51.436;6.972;2023-08-06T08:45:05;18.90;99.90
2012;DHT22;1009;51.436;6.972;2023-08-06T08:47:34;19.00;99.90
2012;DHT22;1009;51.436;6.972;2023-08-06T08:50:02;18.90;99.90
2012;DHT22;1009;51.436;6.972;2023-08-06T08:52:31;18.90;99.90
2012;DHT22;1009;51.436;6.972;2023-08-06T08:55:01;19.00;99.90
2012;DHT22;1009;51.436;6.972;2023-08-06T08:57:28;19.10;99.90
2012;DHT22;1009;51.436;6.972;2023-08-06T08:59:55;19.20;99.90
2012;DHT22;1009;51.436;6.972;2023-08-06T09:02:23;19.30;99.90
2012;DHT22;1009;51.436;6.972;2023-08-06T09:04:54;19.30;99.90
2012;DHT22;1009;51.436;6.972;2023-08-06T09:07:23;19.30;99.90
2012;DHT22;1009;51.436;6.972;2023-08-06T09:09:52;19.30;99.90
2012;DHT22;1009;51.436;6.972;2023-08-06T09:12:20;19.50;99.90
2012;DHT22;1009;51.436;6.972;2023-08-06T09:14:47;19.50;99.90
2012;DHT22;1009;51.436;6.972;2023-08-06T09:17:14;19.40;99.90
2012;DHT22;1009;51.436;6.972;2023-08-06T09:19:45;19.40;99.90
2012;DHT22;1009;51.436;6.972;2023-08-06T09:22:15;19.30;99.90
2012;DHT22;1009;51.436;6.972;2023-08-06T09:24:43;19.10;99.90
2012;DHT22;1009;51.436;6.972;2023-08-06T09:27:14;18.90;99.90
2012;DHT22;1009;51.436;6.972;2023-08-06T09:29:42;18.70;99.90
2012;DHT22;1009;51.436;6.972;2023-08-06T09:32:10;18.80;99.90
2012;DHT22;1009;51.436;6.972;2023-08-06T09:34:39;18.70;99.90
2012;DHT22;1009;51.436;6.972;2023-08-06T09:37:08;18.60;99.90
2012;DHT22;1009;51.436;6.972;2023-08-06T09:39:38;18.50;99.90
2012;DHT22;1009;51.436;6.972;2023-08-06T09:42:05;18.30;99.90
2012;DHT22;1009;51.436;6.972;2023-08-06T09:44:33;18.20;99.90
2012;DHT22;1009;51.436;6.972;2023-08-06T09:47:01;18.30;99.90
2012;DHT22;1009;51.436;6.972;2023-08-06T09:49:40;18.30;99.90
2012;DHT22;1009;51.436;6.972;2023-08-06T09:52:11;18.30;99.90
2012;DHT22;1009;51.436;6.972;2023-08-06T09:54:39;18.10;99.90
2012;DHT22;1009;51.436;6.972;2023-08-06T09:57:06;18.10;99.90
2012;DHT22;1009;51.436;6.972;2023-08-06T09:59:34;18.10;99.90
2012;DHT22;1009;51.436;6.972;2023-08-06T10:02:03;18.00;99.90
2012;DHT22;1009;51.436;6.972;2023-08-06T10:04:32;18.00;99.90
2012;DHT22;1009;51.436;6.972;2023-08-06T10:06:59;17.90;99.90
2012;DHT22;1009;51.436;6.972;2023-08-06T10:09:27;18.00;99.90
2012;DHT22;1009;51.436;6.972;2023-08-06T10:11:56;18.10;99.90
2012;DHT22;1009;51.436;6.972;2023-08-06T10:14:26;18.20;99.90
2012;DHT22;1009;51.436;6.972;2023-08-06T10:16:57;18.40;99.90
2012;DHT22;1009;51.436;6.972;2023-08-06T10:19:25;18.50;99.90
2012;DHT22;1009;51.436;6.972;2023-08-06T10:22:11;19.00;99.90
2012;DHT22;1009;51.436;6.972;2023-08-06T10:24:52;19.40;99.90
2012;DHT22;1009;51.436;6.972;2023-08-06T10:27:32;19.30;99.90
2012;DHT22;1009;51.436;6.972;2023-08-06T10:30:21;19.10;99.90
2012;DHT22;1009;51.436;6.972;2023-08-06T10:32:49;19.40;99.90
2012;DHT22;1009;51.436;6.972;2023-08-06T10:35:36;19.30;99.90
2012;DHT22;1009;51.436;6.972;2023-08-06T10:38:07;19.00;99.90
2012;DHT22;1009;51.436;6.972;2023-08-06T10:40:35;18.90;99.90
2012;DHT22;1009;51.436;6.972;2023-08-06T10:43:04;18.70;99.90
2012;DHT22;1009;51.436;6.972;2023-08-06T10:45:34;18.70;99.90
2012;DHT22;1009;51.436;6.972;2023-08-06T10:48:02;18.70;99.90
2012;DHT22;1009;51.436;6.972;2023-08-06T10:50:30;18.70;99.90
2012;DHT22;1009;51.436;6.972;2023-08-06T10:52:58;18.70;99.90
2012;DHT22;1009;51.436;6.972;2023-08-06T10:55:30;18.60;99.90
2012;DHT22;1009;51.436;6.972;2023-08-06T10:57:58;18.60;99.90
2012;DHT22;1009;51.436;6.972;2023-08-06T11:00:26;18.60;99.90
2012;DHT22;1009;51.436;6.972;2023-08-06T11:02:53;18.70;99.90
2012;DHT22;1009;51.436;6.972;2023-08-06T11:05:20;18.90;99.90
2012;DHT22;1009;51.436;6.972;2023-08-06T11:07:47;19.00;99.90
2012;DHT22;1009;51.436;6.972;2023-08-06T11:10:15;19.10;99.90
2012;DHT22;1009;51.436;6.972;2023-08-06T11:12:41;19.10;99.90
2012;DHT22;1009;51.436;6.972;2023-08-06T11:15:09;19.10;99.90
2012;DHT22;1009;51.436;6.972;2023-08-06T11:17:40;18.90;99.90
2012;DHT22;1009;51.436;6.972;2023-08-06T11:20:07;18.70;99.90
2012;DHT22;1009;51.436;6.972;2023-08-06T11:22:36;18.60;99.90
2012;DHT22;1009;51.436;6.972;2023-08-06T11:25:03;18.30;99.90
2012;DHT22;1009;51.436;6.972;2023-08-06T11:27:30;18.10;99.90
2012;DHT22;1009;51.436;6.972;2023-08-06T11:29:56;17.80;99.90
2012;DHT22;1009;51.436;6.972;2023-08-06T11:32:23;17.60;99.90
2012;DHT22;1009;51.436;6.972;2023-08-06T11:34:52;17.40;99.90
2012;DHT22;1009;51.436;6.972;2023-08-06T11:37:21;17.30;99.90
2012;DHT22;1009;51.436;6.972;2023-08-06T11:39:49;17.30;99.90
2012;DHT22;1009;51.436;6.972;2023-08-06T11:42:16;17.00;99.90
2012;DHT22;1009;51.436;6.972;2023-08-06T11:44:43;16.90;99.90
2012;DHT22;1009;51.436;6.972;2023-08-06T11:47:14;16.80;99.90
2012;DHT22;1009;51.436;6.972;2023-08-06T11:49:43;16.50;99.90
2012;DHT22;1009;51.436;6.972;2023-08-06T11:52:14;16.40;99.90
2012;DHT22;1009;51.436;6.972;2023-08-06T11:54:43;16.30;99.90
2012;DHT22;1009;51.436;6.972;2023-08-06T11:57:11;16.20;99.90
2012;DHT22;1009;51.436;6.972;2023-08-06T11:59:38;16.20;99.90
2012;DHT22;1009;51.436;6.972;2023-08-06T12:02:08;16.10;99.90
2012;DHT22;1009;51.436;6.972;2023-08-06T12:05:00;16.00;99.90
2012;DHT22;1009;51.436;6.972;2023-08-06T12:07:30;15.90;99.90
2012;DHT22;1009;51.436;6.972;2023-08-06T12:09:58;15.80;99.90
2012;DHT22;1009;51.436;6.972;2023-08-06T12:12:25;15.90;99.90
2012;DHT22;1009;51.436;6.972;2023-08-06T12:14:52;15.80;99.90
2012;DHT22;1009;51.436;6.972;2023-08-06T12:17:19;15.60;99.90
2012;DHT22;1009;51.436;6.972;2023-08-06T12:19:46;15.60;99.90
2012;DHT22;1009;51.436;6.972;2023-08-06T12:22:14;15.60;99.90
2012;DHT22;1009;51.436;6.972;2023-08-06T12:24:42;15.50;99.90
2012;DHT22;1009;51.436;6.972;2023-08-06T12:27:09;15.40;99.90
2012;DHT22;1009;51.436;6.972;2023-08-06T12:29:37;15.30;99.90
2012;DHT22;1009;51.436;6.972;2023-08-06T12:32:07;15.20;99.90
2012;DHT22;1009;51.436;6.972;2023-08-06T12:34:33;15.20;99.90
2012;DHT22;1009;51.436;6.972;2023-08-06T12:37:01;15.20;99.90
2012;DHT22;1009;51.436;6.972;2023-08-06T12:39:28;15.20;99.90
2012;DHT22;1009;51.436;6.972;2023-08-06T12:41:58;15.10;99.90
2012;DHT22;1009;51.436;6.972;2023-08-06T12:44:25;15.20;99.90
2012;DHT22;1009;51.436;6.972;2023-08-06T12:46:52;15.20;99.90
2012;DHT22;1009;51.436;6.972;2023-08-06T12:49:19;15.20;99.90
2012;DHT22;1009;51.436;6.972;2023-08-06T12:51:47;15.20;99.90
2012;DHT22;1009;51.436;6.972;2023-08-06T12:54:14;15.20;99.90
2012;DHT22;1009;51.436;6.972;2023-08-06T12:56:41;15.20;99.90
2012;DHT22;1009;51.436;6.972;2023-08-06T12:59:09;15.20;99.90
2012;DHT22;1009;51.436;6.972;2023-08-06T13:01:37;15.20;99.90
2012;DHT22;1009;51.436;6.972;2023-08-06T13:04:04;15.20;99.90
2012;DHT22;1009;51.436;6.972;2023-08-06T13:06:31;15.30;99.90
2012;DHT22;1009;51.436;6.972;2023-08-06T13:09:02;15.30;99.90
2012;DHT22;1009;51.436;6.972;2023-08-06T13:11:29;15.30;99.90
2012;DHT22;1009;51.436;6.972;2023-08-06T13:13:59;15.30;99.90
2012;DHT22;1009;51.436;6.972;2023-08-06T13:16:27;15.30;99.90
2012;DHT22;1009;51.436;6.972;2023-08-06T13:18:54;15.30;99.90
2012;DHT22;1009;51.436;6.972;2023-08-06T13:21:21;15.30;99.90
2012;DHT22;1009;51.436;6.972;2023-08-06T13:23:48;15.30;99.90
2012;DHT22;1009;51.436;6.972;2023-08-06T13:26:15;15.40;99.90
2012;DHT22;1009;51.436;6.972;2023-08-06T13:28:42;15.30;99.90
2012;DHT22;1009;51.436;6.972;2023-08-06T13:31:09;15.30;99.90
2012;DHT22;1009;51.436;6.972;2023-08-06T13:33:38;15.20;99.90
2012;DHT22;1009;51.436;6.972;2023-08-06T13:36:05;15.20;99.90
2012;DHT22;1009;51.436;6.972;2023-08-06T13:38:31;15.30;99.90
2012;DHT22;1009;51.436;6.972;2023-08-06T13:40:58;15.30;99.90
2012;DHT22;1009;51.436;6.972;2023-08-06T13:43:25;15.30;99.90
2012;DHT22;1009;51.436;6.972;2023-08-06T13:45:53;15.30;99.90
2012;DHT22;1009;51.436;6.972;2023-08-06T13:48:20;15.30;99.90
2012;DHT22;1009;51.436;6.972;2023-08-06T13:50:48;15.30;99.90
2012;DHT22;1009;51.436;6.972;2023-08-06T13:53:15;15.40;99.90
2012;DHT22;1009;51.436;6.972;2023-08-06T13:55:42;15.40;99.90
2012;DHT22;1009;51.436;6.972;2023-08-06T13:58:09;15.50;99.90
2012;DHT22;1009;51.436;6.972;2023-08-06T14:00:36;15.50;99.90
2012;DHT22;1009;51.436;6.972;2023-08-06T14:03:03;15.50;99.90
2012;DHT22;1009;51.436;6.972;2023-08-06T14:05:30;15.40;99.90
2012;DHT22;1009;51.436;6.972;2023-08-06T14:07:58;15.40;99.90
2012;DHT22;1009;51.436;6.972;2023-08-06T14:10:25;15.40;99.90
2012;DHT22;1009;51.436;6.972;2023-08-06T14:12:52;15.40;99.90
2012;DHT22;1009;51.436;6.972;2023-08-06T14:15:19;15.40;99.90
2012;DHT22;1009;51.436;6.972;2023-08-06T14:17:46;15.40;99.90
2012;DHT22;1009;51.436;6.972;2023-08-06T14:20:13;15.40;99.90
2012;DHT22;1009;51.436;6.972;2023-08-06T14:22:39;15.50;99.90
2012;DHT22;1009;51.436;6.972;2023-08-06T14:25:08;15.40;99.90
2012;DHT22;1009;51.436;6.972;2023-08-06T14:27:35;15.40;99.90
2012;DHT22;1009;51.436;6.972;2023-08-06T14:30:05;15.40;99.90
2012;DHT22;1009;51.436;6.972;2023-08-06T14:32:32;15.40;99.90
2012;DHT22;1009;51.436;6.972;2023-08-06T14:34:59;15.50;99.90
2012;DHT22;1009;51.436;6.972;2023-08-06T14:37:25;15.60;99.90
2012;DHT22;1009;51.436;6.972;2023-08-06T14:39:52;15.60;99.90
2012;DHT22;1009;51.436;6.972;2023-08-06T14:42:21;15.60;99.90
2012;DHT22;1009;51.436;6.972;2023-08-06T14:44:48;15.60;99.90
2012;DHT22;1009;51.436;6.972;2023-08-06T14:47:15;15.60;99.90
2012;DHT22;1009;51.436;6.972;2023-08-06T14:49:42;15.60;99.90
2012;DHT22;1009;51.436;6.972;2023-08-06T14:52:10;15.70;99.90
2012;DHT22;1009;51.436;6.972;2023-08-06T14:54:37;15.60;99.90
2012;DHT22;1009;51.436;6.972;2023-08-06T14:57:04;15.60;99.90
2012;DHT22;1009;51.436;6.972;2023-08-06T14:59:32;15.70;99.90
2012;DHT22;1009;51.436;6.972;2023-08-06T15:01:59;15.80;99.90
2012;DHT22;1009;51.436;6.972;2023-08-06T15:04:26;15.80;99.90
2012;DHT22;1009;51.436;6.972;2023-08-06T15:06:54;15.90;99.90
2012;DHT22;1009;51.436;6.972;2023-08-06T15:09:20;15.90;99.90
2012;DHT22;1009;51.436;6.972;2023-08-06T15:11:48;15.90;99.90
2012;DHT22;1009;51.436;6.972;2023-08-06T15:14:15;15.90;99.90
2012;DHT22;1009;51.436;6.972;2023-08-06T15:16:46;15.90;99.90
2012;DHT22;1009;51.436;6.972;2023-08-06T15:19:13;15.90;99.90
2012;DHT22;1009;51.436;6.972;2023-08-06T15:21:42;16.00;99.90
2012;DHT22;1009;51.436;6.972;2023-08-06T15:24:09;15.90;99.90
2012;DHT22;1009;51.436;6.972;2023-08-06T15:26:36;15.90;99.90
2012;DHT22;1009;51.436;6.972;2023-08-06T15:29:03;15.90;99.90
2012;DHT22;1009;51.436;6.972;2023-08-06T15:31:36;15.90;99.90
2012;DHT22;1009;51.436;6.972;2023-08-06T15:34:05;16.00;99.90
2012;DHT22;1009;51.436;6.972;2023-08-06T15:36:32;16.00;99.90
2012;DHT22;1009;51.436;6.972;2023-08-06T15:39:00;16.10;99.90
2012;DHT22;1009;51.436;6.972;2023-08-06T15:41:26;16.10;99.90
2012;DHT22;1009;51.436;6.972;2023-08-06T15:43:53;16.10;99.90
2012;DHT22;1009;51.436;6.972;2023-08-06T15:46:22;16.10;99.90
2012;DHT22;1009;51.436;6.972;2023-08-06T15:48:49;16.10;99.90
2012;DHT22;1009;51.436;6.972;2023-08-06T15:51:17;16.10;99.90
2012;DHT22;1009;51.436;6.972;2023-08-06T15:53:44;16.10;99.90
2012;DHT22;1009;51.436;6.972;2023-08-06T15:56:11;16.10;99.90
2012;DHT22;1009;51.436;6.972;2023-08-06T15:58:38;16.20;99.90
2012;DHT22;1009;51.436;6.972;2023-08-06T16:01:04;16.20;99.90
2012;DHT22;1009;51.436;6.972;2023-08-06T16:03:31;16.10;99.90
2012;DHT22;1009;51.436;6.972;2023-08-06T16:05:58;16.10;99.90